Time;durP1;ratioP1;P1;durP2;ratioP2;P2;SDS_P1;SDS_P2;PMS_P1;PMS_P2;Temp;Humidity;BMP_temperature;BMP_pressure;BME280_temperature;BME280_humidity;BME280_pressure;Samples;Min_cycle;Max_cycle;Signal;HPM_P1;HPM_P2
2022/05/29 00:00:27;;;;;;;18.60;3.35;;;;;;;9.60;100.00;101612.41;4903244;29;20056;-78
2022/05/29 00:02:55;;;;;;;13.13;3.70;;;;;;;9.62;100.00;101615.06;4893588;29;20044;-78
2022/05/29 00:05:23;;;;;;;11.27;3.90;;;;;;;9.62;100.00;101609.81;4940177;28;20722;-78
2022/05/29 00:07:52;;;;;;;12.85;3.15;;;;;;;9.64;100.00;101616.88;4890803;29;20051;-78
2022/05/29 00:10:22;;;;;;;12.73;3.53;;;;;;;9.65;100.00;101615.13;4910974;29;20047;-79
2022/05/29 00:12:51;;;;;;;14.00;3.72;;;;;;;9.61;100.00;101623.84;4909719;29;20047;-80
2022/05/29 00:15:19;;;;;;;14.93;3.13;;;;;;;9.57;100.00;101613.22;4905716;29;20481;-79
2022/05/29 00:17:48;;;;;;;11.60;2.88;;;;;;;9.56;100.00;101600.97;4929598;29;20050;-78
2022/05/29 00:20:16;;;;;;;9.68;2.97;;;;;;;9.56;100.00;101602.69;4913655;29;20364;-78
2022/05/29 00:22:45;;;;;;;9.63;3.40;;;;;;;9.56;100.00;101607.94;4913792;28;20044;-79
2022/05/29 00:25:13;;;;;;;12.88;2.78;;;;;;;9.55;100.00;101606.19;4920482;29;20044;-79
2022/05/29 00:27:41;;;;;;;8.98;2.80;;;;;;;9.56;100.00;101594.78;4926180;29;20044;-78
2022/05/29 00:30:11;;;;;;;12.77;3.35;;;;;;;9.56;100.00;101597.41;4930752;28;20048;-78
2022/05/29 00:32:42;;;;;;;12.82;2.60;;;;;;;9.54;100.00;101594.75;4927748;29;20056;-78
2022/05/29 00:35:11;;;;;;;12.48;3.20;;;;;;;9.55;100.00;101587.75;4899760;29;20062;-78
2022/05/29 00:37:41;;;;;;;13.02;3.15;;;;;;;9.56;100.00;101590.44;4898179;29;20055;-78
2022/05/29 00:40:24;;;;;;;14.03;3.33;;;;;;;9.57;100.00;101592.19;4892515;29;20043;-79
2022/05/29 00:42:52;;;;;;;16.50;3.47;;;;;;;9.58;100.00;101579.91;4936629;28;20294;-79
2022/05/29 00:45:28;;;;;;;13.48;3.20;;;;;;;9.60;100.00;101585.19;4941530;28;20329;-79
2022/05/29 00:47:57;;;;;;;11.23;3.28;;;;;;;9.62;100.00;101579.13;4926066;29;20051;-78
2022/05/29 00:50:28;;;;;;;13.40;3.20;;;;;;;9.64;100.00;101576.50;4931154;28;20497;-78
2022/05/29 00:52:56;;;;;;;19.55;3.80;;;;;;;9.66;100.00;101580.03;4932534;29;20382;-78
2022/05/29 00:55:29;;;;;;;12.95;3.88;;;;;;;9.67;100.00;101568.69;4913101;28;20259;-78
2022/05/29 00:58:02;;;;;;;15.18;3.00;;;;;;;9.69;100.00;101570.47;4928212;29;20055;-77
2022/05/29 01:00:33;;;;;;;11.45;2.92;;;;;;;9.70;100.00;101559.09;4928509;29;20060;-77
2022/05/29 01:03:03;;;;;;;14.52;3.88;;;;;;;9.73;100.00;101561.78;4910458;29;20044;-77
2022/05/29 01:05:34;;;;;;;16.70;3.47;;;;;;;9.76;100.00;101561.84;4934549;28;20047;-76
2022/05/29 01:08:25;;;;;;;8.45;3.15;;;;;;;9.78;100.00;101558.34;4941513;28;20052;-77
2022/05/29 01:11:23;;;;;;;12.77;3.20;;;;;;;9.80;100.00;101548.75;4903392;28;20044;-77
2022/05/29 01:14:11;;;;;;;14.32;3.10;;;;;;;9.82;100.00;101549.66;4932865;29;20039;-77
2022/05/29 01:16:50;;;;;;;10.45;2.78;;;;;;;9.81;100.00;101547.84;4928789;29;20477;-77
2022/05/29 01:19:52;;;;;;;15.25;3.25;;;;;;;9.83;100.00;101546.13;4940216;28;20607;-77
2022/05/29 01:22:44;;;;;;;10.85;3.33;;;;;;;9.84;100.00;101550.56;4922391;29;20043;-77
2022/05/29 01:25:12;;;;;;;12.93;2.75;;;;;;;9.84;100.00;101540.91;4940874;29;20134;-77
2022/05/29 01:28:06;;;;;;;11.68;3.13;;;;;;;9.84;100.00;101538.28;4912990;28;20058;-76
2022/05/29 01:30:44;;;;;;;9.63;2.60;;;;;;;9.85;100.00;101545.31;4922908;29;20512;-78
2022/05/29 01:33:22;;;;;;;12.10;3.08;;;;;;;9.86;100.00;101539.19;4925836;29;20707;-78
2022/05/29 01:35:59;;;;;;;17.35;3.38;;;;;;;9.86;100.00;101539.19;4930011;29;20048;-78
2022/05/29 01:38:37;;;;;;;14.55;3.85;;;;;;;9.87;100.00;101527.81;4944116;28;20401;-77
2022/05/29 01:41:17;;;;;;;16.27;3.65;;;;;;;9.86;100.00;101530.41;4900541;28;20055;-78
2022/05/29 01:43:55;;;;;;;;;;;;;;;9.84;100.00;101527.75;4939598;28;20544;-76
2022/05/29 01:46:31;;;;;;;13.55;3.55;;;;;;;9.82;100.00;101529.47;4943345;28;19933;-77
2022/05/29 01:49:24;;;;;;;12.43;3.10;;;;;;;9.80;100.00;101527.69;4922105;29;20051;-77
2022/05/29 01:52:16;;;;;;;17.65;3.65;;;;;;;9.79;100.00;101528.53;4921718;29;20054;-78
2022/05/29 01:54:55;;;;;;;16.25;3.70;;;;;;;9.75;100.00;101519.69;4944584;28;20067;-77
2022/05/29 01:57:28;;;;;;;14.88;3.63;;;;;;;9.74;100.00;101517.94;4879853;28;20522;-77
2022/05/29 02:00:03;;;;;;;14.55;3.20;;;;;;;9.74;100.00;101515.31;4944366;28;20052;-77
2022/05/29 02:02:40;;;;;;;21.60;4.20;;;;;;;9.73;100.00;101502.97;4945191;28;20036;-77
2022/05/29 02:05:16;;;;;;;16.63;3.72;;;;;;;9.72;100.00;101502.09;4907229;29;20533;-77
2022/05/29 02:07:52;;;;;;;10.80;3.90;;;;;;;9.75;100.00;101507.44;4941930;28;20063;-77
2022/05/29 02:10:39;;;;;;;13.13;3.92;;;;;;;9.74;100.00;101502.13;4942826;28;20250;-77
2022/05/29 02:13:15;;;;;;;17.60;4.57;;;;;;;9.74;100.00;101510.03;4892483;29;20071;-77
2022/05/29 02:15:43;;;;;;;13.23;3.58;;;;;;;9.71;100.00;101508.22;4943180;28;20055;-77
2022/05/29 02:18:25;;;;;;;17.23;3.30;;;;;;;9.69;100.00;101509.06;4941189;28;20241;-77
2022/05/29 02:20:58;;;;;;;12.57;3.83;;;;;;;9.63;100.00;101507.22;4928179;29;20405;-77
2022/05/29 02:23:34;;;;;;;16.17;3.15;;;;;;;9.61;100.00;101515.94;4918996;29;20266;-78
2022/05/29 02:26:07;;;;;;;12.15;4.05;;;;;;;9.60;100.00;101508.91;4942469;28;20055;-78
2022/05/29 02:28:41;;;;;;;17.15;4.18;;;;;;;9.57;100.00;101510.63;4913364;28;20146;-78
2022/05/29 02:31:15;;;;;;;16.05;3.65;;;;;;;9.57;100.00;101507.97;4939605;28;20051;-78
2022/05/29 02:34:12;;;;;;;15.27;3.67;;;;;;;9.59;100.00;101508.00;4948658;28;20517;-78
2022/05/29 02:36:51;;;;;;;12.93;3.63;;;;;;;9.59;100.00;101504.50;4929443;29;20056;-76
2022/05/29 02:39:42;;;;;;;17.25;3.45;;;;;;;9.59;100.00;101496.63;4911999;29;20055;-77
2022/05/29 02:42:40;;;;;;;14.70;3.22;;;;;;;9.53;100.00;101500.91;4916892;29;20047;-78
2022/05/29 02:45:23;;;;;;;18.63;3.67;;;;;;;9.52;100.00;101491.22;4881927;29;20166;-78
2022/05/29 02:48:10;;;;;;;13.52;3.38;;;;;;;9.50;100.00;101484.16;4935958;28;20493;-77
2022/05/29 02:50:47;;;;;;;12.77;4.05;;;;;;;9.48;100.00;101478.88;4929391;29;20397;-77
2022/05/29 02:53:16;;;;;;;17.20;4.53;;;;;;;9.48;100.00;101475.38;4932752;28;20632;-77
2022/05/29 02:55:45;;;;;;;15.10;3.60;;;;;;;9.49;100.00;101482.38;4935205;28;20362;-77
2022/05/29 02:58:22;;;;;;;11.05;2.88;;;;;;;9.49;100.00;101479.75;4936476;28;20275;-77
2022/05/29 03:00:58;;;;;;;12.20;3.75;;;;;;;9.49;100.00;101463.97;4909857;28;20051;-78
2022/05/29 03:03:57;;;;;;;11.80;3.17;;;;;;;9.50;100.00;101466.63;4941807;28;20262;-77
2022/05/29 03:06:39;;;;;;;8.40;2.88;;;;;;;9.50;100.00;101463.13;4928505;29;20047;-77
2022/05/29 03:09:27;;;;;;;19.73;4.32;;;;;;;9.50;100.00;101466.63;4915372;29;20509;-77
2022/05/29 03:11:55;;;;;;;14.15;3.28;;;;;;;9.50;100.00;101463.13;4910743;29;20524;-76
2022/05/29 03:14:24;;;;;;;14.07;3.17;;;;;;;9.50;100.00;101463.13;4894773;29;20718;-77
2022/05/29 03:16:55;;;;;;;14.30;3.30;;;;;;;9.51;100.00;101462.28;4939579;28;20055;-77
2022/05/29 03:19:24;;;;;;;15.40;3.42;;;;;;;9.52;100.00;101454.38;4922613;29;20052;-77
2022/05/29 03:22:04;;;;;;;9.43;2.67;;;;;;;9.53;100.00;101455.28;4940863;28;20040;-77
2022/05/29 03:24:49;;;;;;;11.85;3.22;;;;;;;9.53;100.00;101468.44;4945910;28;20047;-77
2022/05/29 03:27:31;;;;;;;15.95;3.55;;;;;;;9.53;100.00;101465.81;4914032;29;20225;-77
2022/05/29 03:30:09;;;;;;;11.30;2.58;;;;;;;9.52;100.00;101464.91;4893352;29;20054;-76
2022/05/29 03:32:39;;;;;;;14.32;2.78;;;;;;;9.50;100.00;101473.66;4942161;28;20517;-77
2022/05/29 03:35:29;;;;;;;15.52;3.95;;;;;;;9.49;100.00;101466.59;4904344;29;20166;-77
2022/05/29 03:37:59;;;;;;;11.00;2.92;;;;;;;9.46;100.00;101463.94;4936755;28;20401;-77
2022/05/29 03:40:30;;;;;;;10.98;2.67;;;;;;;9.47;100.00;101468.31;4916295;29;20055;-78
2022/05/29 03:42:59;;;;;;;15.27;4.20;;;;;;;9.46;100.00;101463.94;4923043;29;20039;-77
2022/05/29 03:45:28;;;;;;;10.95;3.08;;;;;;;9.47;100.00;101463.06;4894250;29;22538;-77
2022/05/29 03:47:56;;;;;;;19.85;3.42;;;;;;;9.46;100.00;101463.94;4941725;28;20051;-77
2022/05/29 03:50:25;;;;;;;13.70;3.38;;;;;;;9.46;100.00;101462.19;4925234;29;20064;-77
2022/05/29 03:52:54;;;;;;;16.15;3.47;;;;;;;9.49;100.00;101450.81;4938280;28;20071;-77
2022/05/29 03:55:26;;;;;;;17.02;2.95;;;;;;;9.50;100.00;101460.50;4909298;29;20245;-77
2022/05/29 03:57:54;;;;;;;12.18;3.38;;;;;;;9.48;100.00;101459.59;4917365;29;20044;-77
2022/05/29 04:00:24;;;;;;;15.43;3.15;;;;;;;9.48;100.00;101460.47;4940601;28;20051;-77
2022/05/29 04:02:53;;;;;;;15.82;3.30;;;;;;;9.45;100.00;101465.69;4908426;28;20036;-77
2022/05/29 04:05:23;;;;;;;14.52;4.25;;;;;;;9.44;100.00;101465.66;4926018;29;20274;-77
2022/05/29 04:13:37;;;;;;;8.65;2.80;;;;;;;9.35;100.00;101453.22;4925718;29;20055;-77
2022/05/29 04:16:06;;;;;;;9.40;2.47;;;;;;;9.36;100.00;101449.75;4906269;29;20055;-77
2022/05/29 04:18:37;;;;;;;12.32;2.25;;;;;;;9.38;100.00;101455.03;4879104;29;20048;-77
2022/05/29 04:21:06;;;;;;;8.50;2.25;;;;;;;9.38;100.00;101447.13;4937631;28;20043;-77
2022/05/29 04:23:35;;;;;;;11.07;2.10;;;;;;;9.39;100.00;101438.38;4942585;28;20040;-76
2022/05/29 04:26:03;;;;;;;11.93;2.80;;;;;;;9.43;100.00;101437.56;4922344;28;20047;-78
2022/05/29 04:28:33;;;;;;;13.98;3.33;;;;;;;9.45;100.00;101438.47;4913954;29;20051;-77
2022/05/29 04:31:01;;;;;;;11.68;2.97;;;;;;;9.47;100.00;101436.75;4924229;29;20050;-77
2022/05/29 04:33:30;;;;;;;9.73;2.67;;;;;;;9.49;100.00;101435.03;4879921;29;20055;-77
2022/05/29 04:35:58;;;;;;;11.25;3.45;;;;;;;9.51;100.00;101433.34;4901319;29;20062;-77
2022/05/29 04:38:29;;;;;;;;;;;;;;;9.53;100.00;101436.88;4911762;29;20044;-77
2022/05/29 04:40:58;;;;;;;15.77;2.83;;;;;;;9.55;100.00;101448.31;4921656;29;19923;-77
2022/05/29 04:43:27;;;;;;;19.27;3.78;;;;;;;9.57;100.00;101449.22;4932543;28;20543;-77
2022/05/29 04:45:56;;;;;;;14.32;3.60;;;;;;;9.58;100.00;101456.25;4904327;29;20051;-77
2022/05/29 04:48:24;;;;;;;18.55;3.78;;;;;;;9.59;100.00;101455.41;4938068;28;20043;-77
2022/05/29 04:51:02;;;;;;;13.15;3.20;;;;;;;9.60;100.00;101444.00;4907115;28;20055;-77
2022/05/29 04:53:31;;;;;;;15.48;3.75;;;;;;;9.62;100.00;101446.66;4942430;28;20063;-77
2022/05/29 04:56:00;;;;;;;13.95;4.18;;;;;;;9.61;100.00;101437.88;4924028;29;20374;-77
2022/05/29 04:58:29;;;;;;;25.40;3.92;;;;;;;9.63;100.00;101437.91;4886126;29;20032;-77
2022/05/29 05:01:00;;;;;;;19.20;3.35;;;;;;;9.64;100.00;101450.19;4926586;29;20055;-77
2022/05/29 05:03:29;;;;;;;16.50;3.38;;;;;;;9.63;100.00;101445.81;4934775;28;20046;-77
2022/05/29 05:05:58;;;;;;;16.80;3.15;;;;;;;9.61;100.00;101434.38;4895320;29;20048;-77
2022/05/29 05:08:27;;;;;;;14.80;3.35;;;;;;;9.63;100.00;101440.53;4941125;28;20047;-78
2022/05/29 05:10:56;;;;;;;13.38;3.20;;;;;;;9.64;100.00;101437.94;4914800;29;20051;-77
2022/05/29 05:13:24;;;;;;;14.40;2.75;;;;;;;9.64;100.00;101435.31;4890270;29;20070;-78
2022/05/29 05:16:04;;;;;;;14.65;3.53;;;;;;;9.67;100.00;101439.72;4938169;28;20040;-77
2022/05/29 05:18:34;;;;;;;14.55;3.00;;;;;;;9.70;100.00;101439.78;4925992;29;20063;-77
2022/05/29 05:21:06;;;;;;;10.00;2.63;;;;;;;9.71;100.00;101437.16;4891541;29;20047;-78
2022/05/29 05:23:35;;;;;;;18.20;2.97;;;;;;;9.73;100.00;101446.00;4928140;29;20040;-77
2022/05/29 05:26:09;;;;;;;15.15;3.15;;;;;;;9.76;100.00;101443.38;4912384;29;20048;-77
2022/05/29 05:28:38;;;;;;;15.48;3.03;;;;;;;9.78;100.00;101437.28;4906617;29;20046;-77
2022/05/29 05:31:07;;;;;;;12.82;3.20;;;;;;;9.81;100.00;101439.94;4936174;28;20048;-77
2022/05/29 05:33:35;;;;;;;12.30;2.80;;;;;;;9.83;100.00;101440.84;4940722;28;20528;-77
2022/05/29 05:36:04;;;;;;;13.00;2.60;;;;;;;9.86;100.00;101435.66;4891552;29;20051;-76
2022/05/29 05:38:33;;;;;;;14.80;3.17;;;;;;;9.90;100.00;101430.44;4910641;29;20067;-77
2022/05/29 05:41:01;;;;;;;15.43;3.60;;;;;;;9.93;100.00;101429.63;4892628;29;20043;-77
2022/05/29 05:43:31;;;;;;;16.75;2.97;;;;;;;9.94;100.00;101437.53;4942977;28;20066;-77
2022/05/29 05:46:00;;;;;;;11.45;3.03;;;;;;;9.95;100.00;101444.56;4899194;29;20055;-78
2022/05/29 05:48:30;;;;;;;12.15;2.83;;;;;;;9.97;100.00;101448.97;4896803;29;20066;-77
2022/05/29 05:50:59;;;;;;;11.43;2.53;;;;;;;9.94;100.00;101452.44;4919804;28;20503;-77
2022/05/29 05:53:31;;;;;;;12.30;2.88;;;;;;;9.91;100.00;101455.91;4941556;28;20078;-76
2022/05/29 05:56:04;;;;;;;6.82;2.55;;;;;;;9.85;100.00;101454.91;4912350;29;20046;-78
2022/05/29 05:58:33;;;;;;;9.88;2.65;;;;;;;9.80;100.00;101456.63;4944784;28;20042;-77
2022/05/29 06:01:09;;;;;;;10.30;2.30;;;;;;;9.79;100.00;101446.94;4877551;29;20055;-76
2022/05/29 06:03:38;;;;;;;7.00;2.65;;;;;;;9.79;100.00;101441.66;4928101;29;20394;-77
2022/05/29 06:06:06;;;;;;;12.85;3.30;;;;;;;9.79;100.00;101446.94;4929217;29;20043;-77
2022/05/29 06:08:35;;;;;;;11.18;2.30;;;;;;;9.78;100.00;101468.88;4900902;28;20039;-76
2022/05/29 06:11:04;;;;;;;8.52;2.50;;;;;;;9.76;100.00;101456.56;4926261;29;20039;-76
2022/05/29 06:13:32;;;;;;;9.75;2.35;;;;;;;9.74;100.00;101454.75;4909038;29;20493;-76
2022/05/29 06:16:03;;;;;;;10.55;2.10;;;;;;;9.72;100.00;101459.13;4914523;29;20052;-77
2022/05/29 06:18:31;;;;;;;9.98;2.42;;;;;;;9.69;100.00;101452.03;4929630;29;20051;-76
2022/05/29 06:21:04;;;;;;;11.98;2.28;;;;;;;9.68;100.00;101452.03;4943154;28;20047;-77
2022/05/29 06:23:34;;;;;;;9.40;2.47;;;;;;;9.69;100.00;101453.78;4899079;29;20043;-76
2022/05/29 06:26:04;;;;;;;;;;;;;;;9.70;100.00;101450.31;4927405;29;20051;-77
2022/05/29 06:28:33;;;;;;;11.00;2.90;;;;;;;9.68;100.00;101455.56;4921502;29;20380;-77
2022/05/29 06:31:03;;;;;;;11.98;2.88;;;;;;;9.64;100.00;101459.00;4917718;29;20043;-76
2022/05/29 06:33:41;;;;;;;13.85;2.60;;;;;;;9.60;100.00;101453.63;4922322;29;20058;-76
2022/05/29 06:36:16;;;;;;;16.60;3.35;;;;;;;9.56;100.00;101458.88;4912954;29;20270;-78
2022/05/29 06:38:46;;;;;;;16.52;3.03;;;;;;;9.55;100.00;101467.59;4916289;28;20047;-77
2022/05/29 06:41:16;;;;;;;8.85;2.67;;;;;;;9.59;100.00;101460.66;4926801;29;20178;-77
2022/05/29 06:43:46;;;;;;;11.57;2.00;;;;;;;9.61;100.00;101456.31;4917521;29;20035;-77
2022/05/29 06:46:14;;;;;;;8.63;2.10;;;;;;;9.66;100.00;101464.25;4917021;28;20166;-77
2022/05/29 06:48:43;;;;;;;15.10;2.60;;;;;;;9.68;100.00;101462.56;4928899;29;20047;-77
2022/05/29 06:51:21;;;;;;;12.23;3.15;;;;;;;9.72;100.00;101454.72;4926232;28;20449;-77
2022/05/29 06:53:52;;;;;;;13.52;3.10;;;;;;;9.75;100.00;101459.16;4925413;29;20047;-77
2022/05/29 06:56:22;;;;;;;8.85;3.15;;;;;;;9.75;100.00;101454.78;4907358;29;20078;-77
2022/05/29 06:58:50;;;;;;;24.65;3.17;;;;;;;9.76;100.00;101459.19;4927048;29;20125;-77
2022/05/29 07:07:00;;;;;;;14.40;2.83;;;;;;;9.73;100.00;101461.78;4935694;28;20054;-77
2022/05/29 07:09:36;;;;;;;13.90;3.20;;;;;;;9.70;100.00;101474.88;4940621;28;20048;-76
2022/05/29 07:12:11;;;;;;;12.95;2.58;;;;;;;9.68;100.00;101465.19;4895516;29;20066;-77
2022/05/29 07:14:47;;;;;;;12.00;2.67;;;;;;;9.68;100.00;101467.84;4943978;28;20059;-76
2022/05/29 07:17:15;;;;;;;12.50;3.00;;;;;;;9.68;100.00;101470.47;4914297;29;20052;-77
2022/05/29 07:19:44;;;;;;;9.95;2.42;;;;;;;9.64;100.00;101474.78;4928718;29;20058;-77
2022/05/29 07:22:13;;;;;;;8.55;2.85;;;;;;;9.61;100.00;101474.72;4908720;29;20182;-76
2022/05/29 07:24:43;;;;;;;11.45;2.53;;;;;;;9.62;100.00;101475.59;4910246;29;20048;-77
2022/05/29 07:27:12;;;;;;;6.25;2.63;;;;;;;9.60;100.00;101478.19;4898858;28;20043;-77
2022/05/29 07:29:40;;;;;;;10.70;2.30;;;;;;;9.60;100.00;101472.06;4925252;29;20520;-77
2022/05/29 07:32:10;;;;;;;18.50;2.55;;;;;;;9.59;100.00;101484.34;4926558;28;20048;-78
2022/05/29 07:34:43;;;;;;;11.30;2.33;;;;;;;9.62;100.00;101489.66;4931186;29;20056;-77
2022/05/29 07:37:16;;;;;;;8.23;2.20;;;;;;;9.64;100.00;101479.13;4940074;28;20310;-78
2022/05/29 07:39:47;;;;;;;10.65;1.77;;;;;;;9.66;100.00;101483.59;4926968;28;20051;-77
2022/05/29 07:45:08;;;;;;;7.05;2.50;;;;;;;9.84;100.00;101484.75;4920387;29;20052;-77
2022/05/29 07:47:40;;;;;;;9.13;1.98;;;;;;;9.92;100.00;101483.13;4922653;29;20529;-77
2022/05/29 07:50:12;;;;;;;11.48;1.95;;;;;;;10.00;100.00;101470.97;4903828;29;20462;-78
2022/05/29 07:52:40;;;;;;;9.68;1.83;;;;;;;10.08;100.00;101469.34;4944142;28;20059;-77
2022/05/29 07:55:09;;;;;;;6.50;1.80;;;;;;;10.19;100.00;101461.59;4892464;29;20694;-77
2022/05/29 07:57:37;;;;;;;7.75;1.83;;;;;;;10.25;100.00;101466.97;4880810;29;20393;-77
2022/05/29 08:00:08;;;;;;;5.65;1.90;;;;;;;10.30;100.00;101473.22;4904446;29;20048;-77
2022/05/29 08:02:39;;;;;;;7.82;1.77;;;;;;;10.29;100.00;101478.44;4921208;29;20036;-76
2022/05/29 08:05:10;;;;;;;11.98;2.58;;;;;;;10.25;100.00;101485.38;4915728;29;20070;-76
2022/05/29 08:07:40;;;;;;;13.00;2.70;;;;;;;10.20;100.00;101478.28;4943182;29;20055;-76
2022/05/29 08:10:11;;;;;;;8.75;2.50;;;;;;;10.17;100.00;101481.78;4925709;28;20575;-77
2022/05/29 08:12:42;;;;;;;7.35;2.00;;;;;;;10.10;100.00;101486.03;4894574;28;20063;-76
2022/05/29 08:15:11;;;;;;;12.45;2.63;;;;;;;10.10;100.00;101491.31;4924219;29;20699;-77
2022/05/29 08:17:42;;;;;;;9.75;2.20;;;;;;;10.10;100.00;101487.81;4914807;29;20056;-78
2022/05/29 08:20:14;;;;;;;8.05;1.90;;;;;;;10.10;100.00;101491.31;4922751;28;20289;-78
2022/05/29 08:22:43;;;;;;;11.73;2.60;;;;;;;10.11;100.00;101485.19;4926481;28;20046;-77
2022/05/29 08:30:54;;;;;;;6.40;1.77;;;;;;;10.10;100.00;101477.28;4915930;29;20507;-77
2022/05/29 08:33:28;;;;;;;7.63;1.90;;;;;;;10.14;100.00;101492.25;4924216;29;20077;-77
2022/05/29 08:36:00;;;;;;;7.93;1.90;;;;;;;10.19;100.00;101480.03;4899111;29;20521;-77
2022/05/29 08:38:31;;;;;;;16.38;2.63;;;;;;;10.26;100.00;101481.00;4940897;28;20395;-77
2022/05/29 08:41:31;;;;;;;14.85;2.28;;;;;;;10.31;100.00;101480.25;4928212;28;20059;-77
2022/05/29 08:44:42;;;;;;;12.73;2.22;;;;;;;10.28;100.00;101477.53;4879566;29;20044;-77
2022/05/29 08:47:11;;;;;;;9.50;2.10;;;;;;;10.27;100.00;101481.03;4901689;29;20266;-78
2022/05/29 08:49:43;;;;;;;5.75;2.08;;;;;;;10.30;100.00;101473.22;4922548;29;20067;-78
2022/05/29 08:52:35;;;;;;;9.98;2.47;;;;;;;10.39;100.00;101472.44;4898912;29;20242;-78
2022/05/29 08:55:14;;;;;;;5.78;1.90;;;;;;;10.46;100.00;101471.66;4928918;28;20051;-78
2022/05/29 08:58:04;;;;;;;13.13;2.20;;;;;;;10.52;100.00;101477.00;4926470;29;20035;-76
2022/05/29 09:00:44;;;;;;;11.50;1.90;;;;;;;10.56;100.00;101484.97;4882840;29;20047;-77
2022/05/29 09:03:21;;;;;;;9.90;2.33;;;;;;;10.49;100.00;101477.00;4926559;28;20685;-78
2022/05/29 09:05:56;;;;;;;5.32;2.17;;;;;;;10.43;100.00;101486.53;4916610;29;20055;-77
2022/05/29 09:08:49;;;;;;;6.00;1.92;;;;;;;10.42;100.00;101480.41;4914307;29;20113;-76
2022/05/29 09:11:35;;;;;;;9.38;2.17;;;;;;;10.43;100.00;101476.88;4910221;29;20043;-79
2022/05/29 09:14:21;;;;;;;14.27;2.20;;;;;;;10.46;100.00;101482.22;4905784;28;20048;-77
2022/05/29 09:17:00;;;;;;;11.32;2.35;;;;;;;10.52;100.00;101482.28;4908374;29;20052;-77
2022/05/29 09:19:48;;;;;;;6.43;2.67;;;;;;;10.65;100.00;101472.78;4938482;28;20052;-77
2022/05/29 09:22:27;;;;;;;7.28;2.00;;;;;;;10.78;100.00;101475.59;4914127;29;20612;-77
2022/05/29 09:25:10;;;;;;;12.55;2.28;;;;;;;10.90;100.00;101471.34;4932854;28;20043;-77
2022/05/29 09:27:44;;;;;;;8.27;1.67;;;;;;;10.98;100.00;101479.34;4930869;29;20052;-77
2022/05/29 09:30:13;;;;;;;6.03;1.67;;;;;;;11.04;100.00;101470.59;4902353;28;20277;-77
2022/05/29 09:32:53;;;;;;;6.75;1.52;;;;;;;11.09;100.00;101468.91;4932072;29;20532;-77
2022/05/29 09:35:31;;;;;;;10.65;2.10;;;;;;;11.15;100.00;101466.34;4927564;29;20341;-77
2022/05/29 09:38:48;;;;;;;7.90;1.73;;;;;;;11.26;100.00;101462.06;4914017;29;20514;-76
2022/05/29 09:41:28;;;;;;;9.65;2.38;;;;;;;11.34;100.00;101466.53;4877506;29;20056;-77
2022/05/29 09:44:40;;;;;;;11.63;2.10;;;;;;;11.31;100.00;101468.28;4923245;29;20458;-78
2022/05/29 09:50:10;;;;;;;9.35;2.08;;;;;;;11.24;100.00;101489.31;4900969;29;20036;-77
2022/05/29 09:52:43;;;;;;;7.68;1.40;;;;;;;11.18;100.00;101479.56;4936263;28;20545;-77
2022/05/29 09:55:34;;;;;;;7.53;1.77;;;;;;;11.12;100.00;101476.88;4918243;29;20060;-77
2022/05/29 09:58:06;;;;;;;;;;;;;;;11.08;100.00;101475.06;4942954;28;20044;-76
2022/05/29 10:00:37;;;;;;;3.20;1.30;;;;;;;11.10;100.00;101473.34;4920011;29;19930;-77
2022/05/29 10:03:09;;;;;;;5.15;1.98;;;;;;;11.10;100.00;101473.34;4903350;28;20036;-77
2022/05/29 10:05:41;;;;;;;2.90;1.50;;;;;;;11.17;100.00;101475.19;4913243;29;20047;-76
2022/05/29 10:08:39;;;;;;;6.35;1.35;;;;;;;11.24;100.00;101468.19;4907475;28;21177;-76
2022/05/29 10:11:30;;;;;;;6.25;1.48;;;;;;;11.25;100.00;101465.59;4890124;29;20711;-77
2022/05/29 10:14:15;;;;;;;5.03;1.70;;;;;;;11.30;100.00;101461.25;4927430;28;20425;-77
2022/05/29 10:16:45;;;;;;;6.78;1.65;;;;;;;11.42;100.00;101456.97;4909658;28;20047;-76
2022/05/29 10:19:38;;;;;;;6.50;1.75;;;;;;;11.48;100.00;101463.16;4923053;28;20056;-76
2022/05/29 10:22:21;;;;;;;8.30;2.17;;;;;;;11.46;100.00;101467.53;4920027;29;20071;-77
2022/05/29 10:24:51;;;;;;;11.77;2.20;;;;;;;11.42;100.00;101470.16;4900088;29;20413;-76
2022/05/29 10:27:19;;;;;;;9.63;2.25;;;;;;;11.29;100.00;101471.78;4926233;28;20051;-78
2022/05/29 10:29:53;;;;;;;8.60;2.15;;;;;;;11.22;100.00;101468.19;4931317;28;20393;-77
2022/05/29 10:32:29;;;;;;;10.90;1.90;;;;;;;11.18;100.00;101476.94;4897065;28;20035;-77
2022/05/29 10:35:30;;;;;;;8.60;2.00;;;;;;;11.19;100.00;101467.25;4925149;29;20253;-77
2022/05/29 10:38:24;;;;;;;8.27;2.05;;;;;;;11.23;100.00;101475.25;4912153;29;20206;-78
2022/05/29 10:41:01;;;;;;;7.30;2.03;;;;;;;11.29;100.00;101470.00;4936920;28;20181;-78
2022/05/29 10:43:36;;;;;;;7.35;1.80;;;;;;;11.31;100.00;101464.75;4925112;28;20060;-77
2022/05/29 10:46:13;;;;;;;7.18;1.95;;;;;;;11.35;100.00;101461.28;4938625;28;20274;-79
2022/05/29 10:52:00;;;;;;;7.93;2.03;;;;;;;11.50;100.00;101463.19;4910474;29;20247;-79
2022/05/29 10:54:47;;;;;;;8.38;2.25;;;;;;;11.58;100.00;101457.97;4926138;28;20031;-77
2022/05/29 10:57:37;;;;;;;7.90;2.30;;;;;;;11.67;100.00;101468.63;4910945;29;20047;-78
2022/05/29 11:00:31;;;;;;;23.17;2.93;;;;;;;11.71;100.00;101465.13;4939772;28;20059;-77
2022/05/29 11:03:17;;;;;;;12.35;2.20;;;;;;;11.67;100.00;101472.13;4924574;29;20070;-78
2022/05/29 11:06:14;;;;;;;9.90;2.30;;;;;;;11.63;100.00;101462.41;4889197;29;20245;-78
2022/05/29 11:09:05;;;;;;;12.80;2.70;;;;;;;11.63;100.00;101462.41;4921229;28;20493;-77
2022/05/29 11:11:49;;;;;;;15.45;2.47;;;;;;;11.63;100.00;101451.84;4919302;29;20121;-79
2022/05/29 11:14:30;;;;;;;9.32;2.80;;;;;;;11.71;100.00;101454.56;4909133;29;20532;-76
2022/05/29 11:17:20;;;;;;;13.48;2.33;;;;;;;11.80;100.00;101453.75;4903600;29;20266;-77
2022/05/29 11:20:11;;;;;;;11.32;2.33;;;;;;;11.94;100.00;101440.69;4901301;28;20040;-78
2022/05/29 11:23:07;;;;;;;7.35;2.42;;;;;;;12.08;100.00;101449.59;4914847;28;20059;-78
2022/05/29 11:25:36;;;;;;;15.82;2.75;;;;;;;12.25;100.00;101441.78;4906941;29;20402;-78
2022/05/29 11:28:20;;;;;;;6.32;2.08;;;;;;;12.38;97.87;101438.31;4906808;29;20044;-77
2022/05/29 11:30:54;;;;;;;5.53;1.65;;;;;;;12.46;96.32;101435.72;4931948;28;20598;-77
2022/05/29 11:33:29;;;;;;;8.55;1.95;;;;;;;12.54;94.68;101436.63;4920641;28;20056;-77
2022/05/29 11:36:05;;;;;;;7.75;1.85;;;;;;;12.64;92.59;101430.50;4891794;29;20448;-77
2022/05/29 11:39:01;;;;;;;8.38;1.70;;;;;;;12.71;87.79;101435.81;4922415;28;20492;-77
2022/05/29 11:41:36;;;;;;;5.38;1.52;;;;;;;12.72;90.76;101432.28;4934067;28;20484;-77
2022/05/29 11:44:35;;;;;;;4.68;1.90;;;;;;;12.67;90.42;101432.28;4919209;28;20051;-77
2022/05/29 11:53:25;;;;;;;10.82;2.33;;;;;;;12.54;92.95;101431.34;4893128;29;20055;-77
2022/05/29 11:55:58;;;;;;;7.68;1.88;;;;;;;12.46;92.66;101426.03;4910181;29;20727;-77
2022/05/29 11:58:34;;;;;;;11.90;2.38;;;;;;;12.42;93.16;101436.56;4901490;29;20422;-77
2022/05/29 12:01:10;;;;;;;7.75;1.73;;;;;;;12.40;92.26;101436.56;4902202;29;20040;-77
2022/05/29 12:04:01;;;;;;;7.50;1.92;;;;;;;12.32;88.16;101432.97;4918283;29;20052;-78
2022/05/29 12:06:34;;;;;;;9.10;1.77;;;;;;;12.30;92.74;101426.81;4874504;29;20128;-79
2022/05/29 12:09:03;;;;;;;6.43;1.95;;;;;;;12.29;92.86;101427.69;4902144;29;20050;-77
2022/05/29 12:11:58;;;;;;;8.00;2.08;;;;;;;12.33;92.38;101428.59;4888254;29;20048;-77
2022/05/29 12:14:50;;;;;;;7.78;2.03;;;;;;;12.48;94.61;101418.97;4900104;29;20418;-78
2022/05/29 12:17:47;;;;;;;6.90;2.10;;;;;;;12.58;93.59;101414.59;4874533;29;20048;-78
2022/05/29 12:20:27;;;;;;;8.27;2.05;;;;;;;12.59;94.37;101420.78;4906606;29;20054;-77
2022/05/29 12:23:12;;;;;;;10.70;2.13;;;;;;;12.60;93.46;101415.50;4852265;29;20357;-77
2022/05/29 12:25:57;;;;;;;6.78;2.25;;;;;;;12.70;93.57;101419.06;4875852;29;20504;-78
2022/05/29 12:28:29;;;;;;;9.00;2.03;;;;;;;12.72;92.51;101417.31;4920122;29;20058;-76
2022/05/29 12:30:59;;;;;;;9.65;1.88;;;;;;;12.65;90.15;101410.25;4893052;29;20037;-78